10:01
Airports
History
Links
Donate
Help keep this website running!
PayPal
Bitcoin
Information on this page is community maintained and may be outdated or inaccurate and is intended for reference only or PC simulator navigating!
Always use approved charts for navigating.
SSGV
Getulio Vargas
Getulio Vargas (SSGV)
GetĂșlio Vargas, Rio Grande do Sul, Brazil (99900)
(C)
Lat/Lng:27° 51' 47" S / 52° 11' 8" W
-27.863056 / -52.185555
Elevation:2149'ft 655mMSL
ID / ICAO:SSGV
Runways:1
Longest:(11-29) 1,207.0m 3,960ft Concrete
Controlled:Yes
Distance To
Airport ID:
Nearby WeatherUpdated 04-22-17 15:00 GMT
Nearby weather at SBPF, Lauro Kurtz located 27.7 nautical miles from SSGV
Altimeter: 30.12
Visibility: 6.2 statute miles
Wind: 4 knots (170°)
Temp: 20°c 68°f
Humidity: 60.0%

METAR: SBPF 221500Z 17004KT 9999 FEW010 SCT030 20/12 Q1020

(Powered by phpweather)
Runway 11 / 29
Dimensions:1207 x 17.1m 3960' x 56'ft
Surface:Concrete
Edge Lights:Medium intensity
Runway 11 [A]Runway 29 [B]
Heading:095°TH 275°TH
Lat:
Lng:
27° 51' 44.97"S
52° 11' 29.86"W
27° 51' 49.03"S
52° 10' 46.13"W
ALS:MALSMALS
Google Map
Nearby Airports
(C) Erechim 14.8 NM
SSER NNW 339°
4 Fazenda Santa Terezinha 18.9 NM
SIYR SE 133°
4 Fazenda Coxilha 19.3 NM
SSCX SSW 204°
(U) Lauro Kurtz 27.7 NM
SBPF (WX) SSW 198°
(C) Aeroclub 33.5 NM
SSAQ SW 217°
(C) Sarandi 42.2 NM
SSXD WSW 258°
(C) Concordia 47.8 NM
SSCK N
VFR Chart
Flight Planning at SkyVector.com